.
WxDataArchive / Data Records for 2010-03-25
2010-03-24 March 2010 2010-03-26

Data Records for Thursday, 25 March 2010

Time	Temp	Chill	HIndex	Humid	Dewpt	 Wind 	HiWind	WindDir	Rain 	Barom 
-----	----	-----	------	-----	-----	------	------	-------	-----	----- 
00:00	46.5	46.5	46.5	51	29.4	0	1	112	0.00	29.961 
00:05	46.4	46.4	46.4	52	29.7	0	1	112	0.00	29.961 
00:10	46.4	46.4	46.4	51	29.3	0	1	112	0.00	29.961 
00:15	46.4	46.4	46.4	51	29.3	0	2	112	0.00	29.961 
00:20	46.5	46.5	46.5	51	29.4	0	1	112	0.00	29.961 
00:25	46.5	46.5	46.5	50	28.9	0	1	112	0.00	29.961 
00:30	46.7	46.7	46.7	50	29.1	0	1	112	0.00	29.960 
00:35	46.7	46.7	46.7	50	29.1	0	1	112	0.00	29.960 
00:40	46.7	46.7	46.7	51	29.5	0	1	112	0.00	29.960 
00:45	46.5	46.5	46.5	52	29.8	0	2	112	0.00	29.954 
00:50	46.2	46.2	46.2	52	29.6	0	1	112	0.00	29.954 
00:55	46.2	46.2	46.2	52	29.6	0	2	112	0.00	29.954 
01:00	46.1	46.1	46.1	52	29.5	0	2	112	0.00	29.947 
01:05	46.1	46.1	46.1	52	29.5	0	1	112	0.00	29.947 
01:10	46.1	46.1	46.1	51	29.0	0	2	112	0.00	29.947 
01:15	46.2	46.2	46.2	51	29.1	0	2	112	0.00	29.943 
01:20	46.2	46.2	46.2	51	29.1	0	2	112	0.00	29.943 
01:25	46.2	46.2	46.2	51	29.1	0	1	112	0.00	29.943 
01:30	46.2	46.2	46.2	52	29.6	0	1	112	0.00	29.940 
01:35	46.1	46.1	46.1	53	29.9	0	0	---	0.00	29.940 
01:40	45.8	45.8	45.8	54	30.1	0	0	---	0.00	29.940 
01:45	45.7	45.7	45.7	54	30.0	0	1	112	0.00	29.930 
01:50	45.5	45.5	45.5	54	29.8	0	1	112	0.00	29.930 
01:55	45.5	45.5	45.5	53	29.4	0	2	112	0.00	29.930 
02:00	45.7	45.7	45.7	52	29.1	0	1	112	0.00	29.927 
02:05	45.8	45.8	45.8	53	29.7	0	1	112	0.00	29.927 
02:10	46.0	46.0	46.0	51	28.9	0	1	112	0.00	29.927 
02:15	46.1	46.1	46.1	53	29.9	0	0	---	0.00	29.929 
02:20	46.1	46.1	46.1	53	29.9	0	0	---	0.00	29.929 
02:25	46.2	46.2	46.2	52	29.6	0	1	112	0.00	29.929 
02:30	46.2	46.2	46.2	54	30.5	0	0	---	0.00	29.928 
02:35	46.2	46.2	46.2	52	29.6	0	0	---	0.00	29.928 
02:40	46.4	46.4	46.4	52	29.7	0	1	112	0.00	29.928 
02:45	46.5	46.5	46.5	52	29.8	0	1	112	0.00	29.929 
02:50	46.7	46.7	46.7	51	29.5	0	2	112	0.00	29.929 
02:55	46.8	46.8	46.8	53	30.6	0	1	112	0.00	29.929 
03:00	47.0	47.0	47.0	54	31.2	0	1	112	0.00	29.934 
03:05	47.0	47.0	47.0	58	33.0	0	1	112	0.00	29.934 
03:10	46.7	46.7	46.7	64	35.2	0	1	112	0.00	29.934 
03:15	46.4	46.4	46.4	66	35.7	0	0	---	0.00	29.938 
03:20	46.0	46.0	46.0	70	36.8	0	0	---	0.00	29.938 
03:25	45.5	45.5	45.5	72	37.0	0	0	---	0.00	29.938 
03:30	45.1	45.1	45.1	74	37.3	0	0	---	0.00	29.929 
03:35	44.8	44.8	44.8	75	37.4	0	0	---	0.00	29.929 
03:40	44.5	44.5	44.5	77	37.7	0	0	---	0.00	29.929 
03:45	44.3	44.3	44.3	79	38.2	0	0	---	0.00	29.927 
03:50	44.2	44.2	44.2	80	38.4	0	0	---	0.00	29.927 
03:55	43.9	43.9	43.9	79	37.8	0	1	112	0.00	29.927 
04:00	43.9	43.9	43.9	77	37.2	0	1	112	0.00	29.917 
04:05	43.8	43.8	43.8	77	37.1	0	0	---	0.00	29.917 
04:10	43.6	43.6	43.6	77	36.9	0	0	---	0.00	29.917 
04:15	43.6	43.6	43.6	77	36.9	0	0	---	0.00	29.916 
04:20	43.5	43.5	43.5	78	37.1	0	0	---	0.00	29.916 
04:25	43.5	43.5	43.5	79	37.4	0	0	---	0.01	29.916 
04:30	43.3	43.3	43.3	79	37.2	0	0	---	0.00	29.912 
04:35	43.3	43.3	43.3	80	37.6	0	0	---	0.00	29.912 
04:40	43.2	43.2	43.2	81	37.8	0	0	---	0.00	29.912 
04:45	43.2	43.2	43.2	82	38.1	0	0	---	0.01	29.916 
04:50	43.2	43.2	43.2	84	38.7	0	0	---	0.00	29.916 
04:55	43.2	43.2	43.2	85	39.0	0	2	112	0.01	29.916 
05:00	42.9	42.9	42.9	85	38.7	0	1	112	0.00	29.903 
05:05	42.8	42.8	42.8	85	38.6	0	0	---	0.00	29.903 
05:10	42.6	42.6	42.6	85	38.4	0	0	---	0.00	29.903 
05:15	42.6	42.6	42.6	85	38.4	0	1	112	0.00	29.897 
05:20	42.6	42.6	42.6	85	38.4	0	1	112	0.00	29.897 
05:25	42.6	42.6	42.6	84	38.1	0	1	112	0.01	29.897 
05:30	42.8	42.8	42.8	83	38.0	1	3	112	0.00	29.880 
05:35	42.9	42.9	42.9	82	37.8	1	3	45	0.00	29.880 
05:40	43.1	43.1	43.1	81	37.7	1	6	112	0.00	29.880 
05:45	43.2	43.2	43.2	81	37.8	1	4	22	0.00	29.866 
05:50	43.2	43.2	43.2	80	37.5	1	4	112	0.00	29.866 
05:55	43.3	43.3	43.3	80	37.6	1	5	112	0.00	29.866 
06:00	43.5	43.5	43.5	79	37.4	1	5	112	0.00	29.865 
06:05	43.5	43.5	43.5	79	37.4	0	2	90	0.00	29.865 
06:10	43.5	43.5	43.5	79	37.4	1	3	45	0.00	29.865 
06:15	43.5	43.5	43.5	79	37.4	0	3	68	0.00	29.865 
06:20	43.5	43.5	43.5	80	37.7	0	2	68	0.00	29.865 
06:25	43.5	43.5	43.5	80	37.7	0	1	68	0.00	29.865 
06:30	43.5	43.5	43.5	81	38.1	0	0	---	0.00	29.874 
06:35	43.3	43.3	43.3	81	37.9	0	1	68	0.00	29.874 
06:40	43.3	43.3	43.3	81	37.9	0	2	68	0.00	29.874 
06:45	43.3	43.3	43.3	82	38.2	0	1	68	0.01	29.872 
06:50	43.2	43.2	43.2	83	38.4	0	2	68	0.00	29.872 
06:55	43.2	43.2	43.2	84	38.7	0	2	68	0.01	29.872 
07:00	43.1	43.1	43.1	84	38.6	0	1	68	0.00	29.873 
07:05	42.9	42.9	42.9	84	38.4	0	1	68	0.00	29.873 
07:10	42.9	42.9	42.9	85	38.7	0	1	68	0.00	29.873 
07:15	42.8	42.8	42.8	85	38.6	0	1	68	0.00	29.883 
07:20	42.6	42.6	42.6	86	38.7	0	2	68	0.00	29.883 
07:25	42.6	42.6	42.6	86	38.7	0	2	68	0.01	29.883 
07:30	42.6	42.6	42.6	87	39.0	0	0	---	0.00	29.893 
07:35	42.5	42.5	42.5	87	38.9	0	0	---	0.00	29.893 
07:40	42.5	42.5	42.5	88	39.2	0	0	---	0.00	29.893 
07:45	42.3	42.3	42.3	88	39.0	0	1	68	0.00	29.886 
07:50	42.5	42.5	42.5	88	39.2	0	1	68	0.00	29.886 
07:55	42.3	42.3	42.3	88	39.0	0	1	68	0.00	29.886 
08:00	42.3	42.3	42.3	88	39.0	0	0	---	0.00	29.901 
08:05	42.3	42.3	42.3	89	39.3	0	1	68	0.01	29.901 
08:10	42.3	42.3	42.3	89	39.3	0	0	---	0.00	29.901 
08:15	42.3	42.3	42.3	89	39.3	0	2	68	0.01	29.908 
08:20	42.3	42.3	42.3	90	39.6	0	1	68	0.01	29.908 
08:25	42.3	42.3	42.3	90	39.6	0	2	68	0.00	29.908 
08:30	42.3	42.3	42.3	90	39.6	0	1	68	0.00	29.913 
08:35	42.3	42.3	42.3	90	39.6	0	1	68	0.01	29.913 
08:40	42.3	42.3	42.3	91	39.9	0	2	45	0.00	29.913 
08:45	42.2	42.2	42.2	91	39.8	0	1	45	0.00	29.910 
08:50	42.2	42.2	42.2	91	39.8	0	1	45	0.01	29.910 
08:55	42.2	42.2	42.2	91	39.8	1	3	45	0.00	29.910 
09:00	42.2	42.2	42.2	91	39.8	1	4	22	0.01	29.903 
09:05	42.1	42.1	42.1	92	39.9	0	2	338	0.01	29.903 
09:10	42.1	42.1	42.1	92	39.9	0	3	0	0.01	29.903 
09:15	42.2	42.2	42.2	92	40.0	1	6	22	0.00	29.906 
09:20	42.2	42.2	42.2	92	40.0	1	6	135	0.01	29.906 
09:25	42.2	42.2	42.2	92	40.0	1	5	45	0.01	29.906 
09:30	42.3	42.3	42.3	92	40.1	1	4	90	0.00	29.906 
09:35	42.3	42.3	42.3	92	40.1	1	4	22	0.01	29.906 
09:40	42.3	42.3	42.3	92	40.1	2	6	45	0.00	29.906 
09:45	42.3	42.3	42.3	91	39.9	2	6	45	0.01	29.906 
09:50	42.5	42.5	42.5	91	40.1	2	4	22	0.00	29.906 
09:55	42.5	42.5	42.5	91	40.1	1	4	112	0.00	29.906 
10:00	42.6	42.6	42.6	91	40.2	2	4	112	0.01	29.905 
10:05	42.6	42.6	42.6	91	40.2	2	5	112	0.00	29.905 
10:10	42.6	42.6	42.6	91	40.2	2	4	45	0.00	29.905 
10:15	42.6	42.6	42.6	91	40.2	2	4	22	0.00	29.902 
10:20	42.6	42.6	42.6	91	40.2	1	4	45	0.01	29.902 
10:25	42.8	42.8	42.8	91	40.4	2	7	0	0.00	29.902 
10:30	42.8	42.8	42.8	91	40.4	2	6	90	0.00	29.893 
10:35	42.8	42.8	42.8	91	40.4	2	5	45	0.00	29.893 
10:40	42.8	42.8	42.8	91	40.4	2	5	22	0.00	29.893 
10:45	42.8	42.8	42.8	91	40.4	2	7	112	0.00	29.902 
10:50	42.6	42.6	42.6	91	40.2	2	11	135	0.01	29.902 
10:55	42.8	42.8	42.8	91	40.4	1	4	68	0.00	29.902 
11:00	42.8	42.8	42.8	92	40.6	1	4	68	0.00	29.899 
11:05	42.9	42.9	42.9	92	40.7	1	5	45	0.00	29.899 
11:10	42.9	42.9	42.9	92	40.7	2	6	90	0.01	29.899 
11:15	42.9	42.9	42.9	92	40.7	2	7	112	0.00	29.903 
11:20	42.9	42.9	42.9	92	40.7	1	5	22	0.01	29.903 
11:25	43.1	43.1	43.1	92	40.9	2	4	45	0.01	29.903 
11:30	43.2	43.2	43.2	92	41.0	1	4	22	0.01	29.889 
11:35	43.3	43.3	43.3	93	41.4	2	5	0	0.00	29.889 
11:40	43.5	43.5	43.5	93	41.6	2	6	112	0.00	29.889 
11:45	43.6	43.6	43.6	93	41.7	2	6	45	0.00	29.888 
11:50	43.6	43.6	43.6	93	41.7	1	5	90	0.00	29.888 
11:55	43.8	43.8	43.8	93	41.9	1	5	45	0.00	29.888 
12:00	43.8	43.8	43.8	93	41.9	2	6	112	0.00	29.888 
12:05	43.8	43.8	43.8	93	41.9	2	7	22	0.00	29.888 
12:10	43.8	43.8	43.8	92	41.6	3	6	45	0.00	29.888 
12:15	43.9	43.9	43.9	92	41.7	2	7	135	0.00	29.873 
12:20	43.9	43.9	43.9	92	41.7	2	6	45	0.00	29.873 
12:25	43.9	43.9	43.9	92	41.7	3	9	135	0.00	29.873 
12:30	44.1	44.1	44.1	92	41.9	2	6	90	0.00	29.873 
12:35	44.1	44.1	44.1	92	41.9	2	9	90	0.00	29.873 
12:40	44.1	44.1	44.1	92	41.9	2	9	45	0.00	29.873 
12:45	44.1	44.1	44.1	92	41.9	2	8	22	0.00	29.869 
12:50	44.1	44.1	44.1	92	41.9	2	6	45	0.00	29.869 
12:55	44.2	44.2	44.2	91	41.7	2	7	22	0.01	29.869 
13:00	44.2	44.2	44.2	91	41.7	2	6	112	0.00	29.867 
13:05	44.2	44.2	44.2	91	41.7	2	4	90	0.00	29.867 
13:10	44.2	44.2	44.2	91	41.7	2	5	45	0.00	29.867 
13:15	44.1	44.1	44.1	91	41.6	3	11	90	0.00	29.863 
13:20	44.1	44.1	44.1	91	41.6	2	6	45	0.01	29.863 
13:25	44.1	44.1	44.1	91	41.6	3	8	22	0.01	29.863 
13:30	44.1	44.1	44.1	90	41.4	2	7	22	0.01	29.873 
13:35	43.9	43.9	43.9	90	41.2	2	5	22	0.00	29.873 
13:40	43.9	43.9	43.9	90	41.2	2	6	22	0.01	29.873 
13:45	43.9	43.9	43.9	91	41.4	1	3	112	0.00	29.875 
13:50	43.9	43.9	43.9	91	41.4	1	3	45	0.01	29.875 
13:55	43.8	43.8	43.8	91	41.3	2	4	90	0.00	29.875 
14:00	43.8	43.8	43.8	91	41.3	3	7	112	0.01	29.867 
14:05	43.8	43.8	43.8	91	41.3	3	8	112	0.00	29.867 
14:10	43.8	43.8	43.8	90	41.1	2	7	90	0.00	29.867 
14:15	43.6	43.6	43.6	90	40.9	3	10	135	0.00	29.869 
14:20	43.6	43.6	43.6	90	40.9	2	7	90	0.00	29.869 
14:25	43.5	43.5	43.5	90	40.8	2	6	22	0.00	29.869 
14:30	43.3	43.3	43.3	90	40.6	2	6	135	0.00	29.867 
14:35	43.3	43.3	43.3	90	40.6	1	5	135	0.00	29.867 
14:40	43.2	41.0	43.2	90	40.5	4	11	90	0.00	29.867 
14:45	43.2	43.2	43.2	90	40.5	3	7	90	0.01	29.860 
14:50	43.2	41.0	43.2	90	40.5	4	11	112	0.00	29.860 
14:55	43.2	41.0	43.2	90	40.5	4	10	112	0.01	29.860 
15:00	43.2	41.0	43.2	90	40.5	4	12	112	0.01	29.840 
15:05	43.2	43.2	43.2	91	40.8	3	9	90	0.01	29.840 
15:10	43.2	43.2	43.2	91	40.8	3	7	112	0.01	29.840 
15:15	43.1	43.1	43.1	91	40.7	3	7	45	0.00	29.845 
15:20	42.9	42.9	42.9	91	40.5	2	9	22	0.01	29.845 
15:25	43.1	43.1	43.1	91	40.7	1	5	112	0.00	29.845 
15:30	42.9	42.9	42.9	91	40.5	2	10	0	0.00	29.843 
15:35	42.8	42.8	42.8	91	40.4	3	9	112	0.01	29.843 
15:40	42.8	42.8	42.8	91	40.4	2	6	90	0.00	29.843 
15:45	42.6	39.5	42.6	91	40.2	5	12	112	0.00	29.830 
15:50	42.6	42.6	42.6	91	40.2	3	7	90	0.00	29.830 
15:55	42.6	39.5	42.6	91	40.2	5	11	112	0.00	29.830 
16:00	42.6	40.3	42.6	91	40.2	4	12	112	0.00	29.829 
16:05	42.5	40.2	42.5	90	39.8	4	11	112	0.00	29.829 
16:10	42.6	42.6	42.6	90	39.9	3	6	112	0.00	29.829 
16:15	42.8	42.8	42.8	90	40.1	3	10	90	0.01	29.829 
16:20	42.8	42.8	42.8	90	40.1	1	6	112	0.00	29.829 
16:25	42.8	40.6	42.8	90	40.1	4	10	112	0.00	29.829 
16:30	42.8	42.8	42.8	89	39.8	3	7	90	0.00	29.828 
16:35	42.8	42.8	42.8	90	40.1	3	9	112	0.01	29.828 
16:40	42.9	42.9	42.9	90	40.2	3	7	112	0.00	29.828 
16:45	42.8	42.8	42.8	91	40.4	3	11	112	0.00	29.828 
16:50	42.8	42.8	42.8	91	40.4	3	9	112	0.00	29.828 
16:55	42.6	42.6	42.6	91	40.2	3	7	112	0.00	29.828 
17:00	42.8	42.8	42.8	91	40.4	2	6	135	0.00	29.817 
17:05	42.8	42.8	42.8	91	40.4	2	7	112	0.00	29.817 
17:10	42.8	42.8	42.8	92	40.6	2	9	112	0.00	29.817 
17:15	42.8	42.8	42.8	92	40.6	2	9	90	0.00	29.817 
17:20	42.8	42.8	42.8	91	40.4	2	6	112	0.00	29.817 
17:25	42.8	42.8	42.8	91	40.4	2	7	112	0.01	29.817 
17:30	42.8	42.8	42.8	91	40.4	2	6	45	0.00	29.814 
17:35	42.8	42.8	42.8	92	40.6	1	7	90	0.00	29.814 
17:40	42.6	42.6	42.6	91	40.2	3	7	112	0.00	29.814 
17:45	42.6	42.6	42.6	91	40.2	3	9	112	0.01	29.815 
17:50	42.5	42.5	42.5	91	40.1	3	10	22	0.00	29.815 
17:55	42.5	42.5	42.5	91	40.1	3	9	45	0.00	29.815 
18:00	42.5	42.5	42.5	91	40.1	1	4	45	0.00	29.813 
18:05	42.5	42.5	42.5	91	40.1	2	6	45	0.00	29.813 
18:10	42.3	42.3	42.3	91	39.9	2	9	112	0.00	29.813 
18:15	42.3	42.3	42.3	91	39.9	3	13	22	0.01	29.830 
18:20	41.9	41.9	41.9	90	39.2	3	13	22	0.00	29.830 
18:25	41.3	38.8	41.3	90	38.6	4	12	112	0.00	29.830 
18:30	40.6	38.0	40.6	90	37.9	4	17	112	0.00	29.847 
18:35	39.9	36.4	39.9	90	37.2	5	13	90	0.00	29.847 
18:40	39.3	34.9	39.3	89	36.3	6	18	112	0.01	29.847 
18:45	39.2	36.4	39.2	90	36.5	4	12	112	0.00	29.858 
18:50	38.9	35.2	38.9	90	36.2	5	13	112	0.00	29.858 
18:55	38.8	35.9	38.8	90	36.1	4	9	112	0.00	29.858 
19:00	38.6	35.7	38.6	91	36.2	4	11	90	0.00	29.866 
19:05	38.5	34.7	38.5	91	36.1	5	13	112	0.00	29.866 
19:10	38.2	34.4	38.2	91	35.8	5	11	112	0.01	29.866 
19:15	38.0	33.4	38.0	91	35.6	6	12	112	0.00	29.879 
19:20	38.0	38.0	38.0	91	35.6	3	10	90	0.00	29.879 
19:25	38.0	38.0	38.0	91	35.6	2	8	112	0.00	29.879 
19:30	37.9	34.9	37.9	91	35.5	4	10	90	0.00	29.881 
19:35	37.8	33.9	37.8	91	35.4	5	13	90	0.00	29.881 
19:40	37.8	34.8	37.8	92	35.7	4	7	112	0.00	29.881 
19:45	37.6	37.6	37.6	91	35.2	3	9	112	0.00	29.878 
19:50	37.5	37.5	37.5	91	35.1	3	7	90	0.00	29.878 
19:55	37.5	37.5	37.5	91	35.1	3	7	112	0.00	29.878 
20:00	37.5	37.5	37.5	91	35.1	3	10	90	0.00	29.881 
20:05	37.5	34.4	37.5	91	35.1	4	12	112	0.00	29.881 
20:10	37.3	34.2	37.3	91	34.9	4	12	112	0.00	29.881 
20:15	37.3	37.3	37.3	91	34.9	2	5	68	0.00	29.883 
20:20	37.3	37.3	37.3	91	34.9	3	7	112	0.00	29.883 
20:25	37.3	34.2	37.3	91	34.9	4	12	112	0.00	29.883 
20:30	37.2	34.1	37.2	91	34.8	4	11	112	0.00	29.884 
20:35	37.0	32.9	37.0	90	34.3	5	12	90	0.00	29.884 
20:40	36.9	36.9	36.9	90	34.2	2	7	45	0.00	29.884 
20:45	36.9	32.8	36.9	89	34.0	5	12	112	0.00	29.888 
20:50	36.9	36.9	36.9	89	34.0	2	10	112	0.00	29.888 
20:55	36.9	36.9	36.9	89	34.0	2	7	112	0.00	29.888 
21:00	36.9	36.9	36.9	89	34.0	3	9	90	0.00	29.898 
21:05	36.8	36.8	36.8	88	33.6	3	5	90	0.00	29.898 
21:10	36.6	36.6	36.6	88	33.4	3	7	112	0.00	29.898 
21:15	36.6	36.6	36.6	88	33.4	3	12	112	0.00	29.903 
21:20	36.6	36.6	36.6	88	33.4	2	6	90	0.00	29.903 
21:25	36.5	33.3	36.5	88	33.3	4	10	90	0.00	29.903 
21:30	36.2	32.9	36.2	88	33.0	4	15	90	0.00	29.914 
21:35	35.9	31.7	35.9	88	32.7	5	12	112	0.00	29.914 
21:40	35.8	35.8	35.8	88	32.6	3	12	112	0.00	29.914 
21:45	35.5	31.2	35.5	88	32.3	5	13	112	0.00	29.915 
21:50	35.3	31.9	35.3	88	32.1	4	11	112	0.00	29.915 
21:55	35.0	30.6	35.0	88	31.8	5	13	90	0.00	29.915 
22:00	34.9	31.4	34.9	88	31.7	4	9	90	0.00	29.915 
22:05	34.6	34.6	34.6	87	31.1	3	12	22	0.00	29.915 
22:10	34.6	34.6	34.6	87	31.1	3	9	112	0.00	29.915 
22:15	34.4	34.4	34.4	87	30.9	2	8	90	0.00	29.920 
22:20	34.3	30.7	34.3	87	30.8	4	9	90	0.00	29.920 
22:25	34.1	34.1	34.1	86	30.4	3	7	68	0.00	29.920 
22:30	34.1	34.1	34.1	86	30.4	3	9	112	0.00	29.927 
22:35	34.0	34.0	34.0	86	30.3	2	5	90	0.00	29.927 
22:40	34.0	34.0	34.0	87	30.5	2	6	112	0.00	29.927 
22:45	34.0	34.0	34.0	87	30.5	2	7	90	0.00	29.933 
22:50	33.8	33.8	33.8	86	30.1	1	5	90	0.00	29.933 
22:55	33.5	33.5	33.5	85	29.5	3	10	45	0.00	29.933 
23:00	33.5	33.5	33.5	85	29.5	2	5	22	0.00	29.934 
23:05	33.5	33.5	33.5	85	29.5	1	4	22	0.00	29.934 
23:10	33.5	33.5	33.5	85	29.5	1	4	22	0.00	29.934 
23:15	33.5	33.5	33.5	85	29.5	1	6	90	0.00	29.933 
23:20	33.5	33.5	33.5	84	29.2	2	10	112	0.00	29.933 
23:25	33.5	33.5	33.5	84	29.2	1	4	22	0.00	29.933 
23:30	33.5	33.5	33.5	84	29.2	1	5	22	0.00	29.936 
23:35	33.5	33.5	33.5	84	29.2	1	3	68	0.00	29.936 
23:40	33.5	33.5	33.5	83	28.9	1	6	112	0.00	29.936 
23:45	33.4	33.4	33.4	83	28.8	1	3	90	0.00	29.934 
23:50	33.4	33.4	33.4	82	28.5	1	4	45	0.00	29.934 
23:55	33.4	33.4	33.4	82	28.5	1	3	112	0.00	29.934 

CoCoRaHS
IN-AL-39
A2 Web Hosting
Creative Commons License
GoDaddy
search engine by freefind advanced

loaded 2018-11-16 00:15:34 • last modified 2010-11-18 10:43:29
Privacy PolicyDisclaimer
• wx.awcolley.com is powered by PmWiki v.2002016 •
• all content (unless otherwise noted) © 2018 A W Colley